Main page
METAR-TAF:

METAR-TAF

Airports :

Yangon International Airport

Yangon, Myanmar

latitude: 16-46N, longitude: 096-10E, elevation: 14 m

Current weather observation

The report was made 22 minutes ago, at 09:00 UTC
Wind 6 kt from the West
Temperature 38°C
Humidity 45%
Pressure 1005 hPa
Visibility: 8000 m

METAR: VYYY 170900Z 27006KT 8000 NSC 38/24 Q1005 NOSIG

Time: 15:52 (09:22 UTC)

Forecast

The report was made 4 hours and 22 minutes ago, at 05:00 UTC
Forecast valid from 17 at 06 UTC to 18 at 06 UTC
Wind 6 kt from the West/Southwest
Visibility: 8000 m
Few clouds at a height of 2500 ft
Scattered clouds at a height of 12000 ft
Temporary
from 17 at 06 UTC to 17 at 12 UTC
Wind 9 kt from the West/Southwest
Visibility: 7000 m
Few clouds at a height of 2000 ft

TAF: VYYY 170500Z 1706/1806 25006KT 8000 FEW025 SCT120 TX39/1709 TN27/1723 TEMPO 1706/1712 24009KT 7000 FEW020

Weather observations and forecasts of more than 4000 airports (METAR and TAF reports).

The available stations are represented by yellow and red dots on the map.

Hover mouse over dot to see the name of the station.

Then click to see weather observations and forecasts.

To change the map : click on the green buttons with a black cross to zoom in, on the green button with a dash to zoom out, or on the green arrows for adjacent maps.


METAR-TAF: